sensor_id;sensor_type;location;lat;lon;timestamp;pressure;altitude;pressure_sealevel;temperature;humidity
50518;BME280;37075;44.084;2.962;2023-09-07T00:01:06;98058.25;;;15.76;54.89
50518;BME280;37075;44.084;2.962;2023-09-07T00:03:52;98064.03;;;15.70;54.93
50518;BME280;37075;44.084;2.962;2023-09-07T00:06:39;98061.22;;;15.67;55.20
50518;BME280;37075;44.084;2.962;2023-09-07T00:09:29;98057.59;;;15.63;55.30
50518;BME280;37075;44.084;2.962;2023-09-07T00:12:15;98057.38;;;15.56;55.36
50518;BME280;37075;44.084;2.962;2023-09-07T00:15:01;98050.84;;;15.45;55.93
50518;BME280;37075;44.084;2.962;2023-09-07T00:17:49;98053.53;;;15.41;55.87
50518;BME280;37075;44.084;2.962;2023-09-07T00:20:36;98059.19;;;15.32;56.35
50518;BME280;37075;44.084;2.962;2023-09-07T00:23:23;98047.31;;;15.28;56.25
50518;BME280;37075;44.084;2.962;2023-09-07T00:26:11;98046.44;;;15.24;56.32
50518;BME280;37075;44.084;2.962;2023-09-07T00:28:59;98058.94;;;15.22;56.10
50518;BME280;37075;44.084;2.962;2023-09-07T00:31:45;98058.69;;;15.11;56.50
50518;BME280;37075;44.084;2.962;2023-09-07T00:34:31;98058.22;;;15.09;56.45
50518;BME280;37075;44.084;2.962;2023-09-07T00:37:17;98054.59;;;15.05;56.41
50518;BME280;37075;44.084;2.962;2023-09-07T00:40:04;98052.38;;;14.95;56.82
50518;BME280;37075;44.084;2.962;2023-09-07T00:42:55;98048.75;;;14.91;56.85
50518;BME280;37075;44.084;2.962;2023-09-07T00:45:41;98040.88;;;14.89;56.65
50518;BME280;37075;44.084;2.962;2023-09-07T00:48:46;98038.84;;;14.86;57.04
50518;BME280;37075;44.084;2.962;2023-09-07T00:51:32;98041.72;;;14.77;57.21
50518;BME280;37075;44.084;2.962;2023-09-07T00:54:38;98043.59;;;14.73;57.26
50518;BME280;37075;44.084;2.962;2023-09-07T00:57:25;98045.91;;;14.71;57.32
50518;BME280;37075;44.084;2.962;2023-09-07T01:00:13;98043.84;;;14.68;57.46
50518;BME280;37075;44.084;2.962;2023-09-07T01:03:00;98037.38;;;14.61;57.84
50518;BME280;37075;44.084;2.962;2023-09-07T01:05:51;98050.47;;;14.52;58.46
50518;BME280;37075;44.084;2.962;2023-09-07T01:08:42;98052.22;;;14.44;59.67
50518;BME280;37075;44.084;2.962;2023-09-07T01:11:47;98047.41;;;14.41;59.37
50518;BME280;37075;44.084;2.962;2023-09-07T01:14:33;98053.38;;;14.43;59.21
50518;BME280;37075;44.084;2.962;2023-09-07T01:17:21;98052.00;;;14.37;59.66
50518;BME280;37075;44.084;2.962;2023-09-07T01:20:09;98052.34;;;14.35;60.24
50518;BME280;37075;44.084;2.962;2023-09-07T01:23:00;98054.53;;;14.30;60.48
50518;BME280;37075;44.084;2.962;2023-09-07T01:25:47;98056.13;;;14.31;60.08
50518;BME280;37075;44.084;2.962;2023-09-07T01:28:34;98051.00;;;14.29;60.17
50518;BME280;37075;44.084;2.962;2023-09-07T01:31:22;98055.69;;;14.29;60.11
50518;BME280;37075;44.084;2.962;2023-09-07T01:34:08;98046.91;;;14.23;60.28
50518;BME280;37075;44.084;2.962;2023-09-07T01:36:54;98044.75;;;14.16;60.96
50518;BME280;37075;44.084;2.962;2023-09-07T01:39:41;98042.97;;;14.08;61.33
50518;BME280;37075;44.084;2.962;2023-09-07T01:42:27;98037.13;;;14.10;61.01
50518;BME280;37075;44.084;2.962;2023-09-07T01:45:32;98037.94;;;14.10;60.73
50518;BME280;37075;44.084;2.962;2023-09-07T01:48:18;98041.84;;;14.09;60.68
50518;BME280;37075;44.084;2.962;2023-09-07T01:51:05;98042.19;;;14.08;60.83
50518;BME280;37075;44.084;2.962;2023-09-07T01:53:51;98046.41;;;14.05;60.82
50518;BME280;37075;44.084;2.962;2023-09-07T01:56:39;98046.75;;;14.04;60.98
50518;BME280;37075;44.084;2.962;2023-09-07T01:59:26;98045.16;;;14.03;60.95
50518;BME280;37075;44.084;2.962;2023-09-07T02:02:12;98043.09;;;14.00;60.83
50518;BME280;37075;44.084;2.962;2023-09-07T02:04:58;98046.19;;;13.98;60.83
50518;BME280;37075;44.084;2.962;2023-09-07T02:07:44;98042.44;;;13.91;61.24
50518;BME280;37075;44.084;2.962;2023-09-07T02:10:33;98040.50;;;13.91;61.08
50518;BME280;37075;44.084;2.962;2023-09-07T02:13:21;98042.59;;;13.82;61.33
50518;BME280;37075;44.084;2.962;2023-09-07T02:16:07;98034.38;;;13.82;61.09
50518;BME280;37075;44.084;2.962;2023-09-07T02:19:01;98033.94;;;13.80;61.57
50518;BME280;37075;44.084;2.962;2023-09-07T02:21:48;98036.19;;;13.78;61.29
50518;BME280;37075;44.084;2.962;2023-09-07T02:24:34;98032.19;;;13.75;61.68
50518;BME280;37075;44.084;2.962;2023-09-07T02:27:20;98034.50;;;13.73;61.70
50518;BME280;37075;44.084;2.962;2023-09-07T02:30:09;98039.97;;;13.73;61.65
50518;BME280;37075;44.084;2.962;2023-09-07T02:32:56;98046.94;;;13.71;61.66
50518;BME280;37075;44.084;2.962;2023-09-07T02:35:43;98041.81;;;13.69;61.77
50518;BME280;37075;44.084;2.962;2023-09-07T02:38:29;98045.16;;;13.63;62.01
50518;BME280;37075;44.084;2.962;2023-09-07T02:41:15;98042.75;;;13.61;62.03
50518;BME280;37075;44.084;2.962;2023-09-07T02:44:01;98046.97;;;13.58;61.91
50518;BME280;37075;44.084;2.962;2023-09-07T02:46:49;98037.84;;;13.54;62.21
50518;BME280;37075;44.084;2.962;2023-09-07T02:49:35;98036.59;;;13.52;62.43
50518;BME280;37075;44.084;2.962;2023-09-07T02:52:21;98043.22;;;13.51;62.32
50518;BME280;37075;44.084;2.962;2023-09-07T02:55:10;98030.66;;;13.50;62.39
50518;BME280;37075;44.084;2.962;2023-09-07T02:57:56;98040.81;;;13.49;62.46
50518;BME280;37075;44.084;2.962;2023-09-07T03:00:43;98037.28;;;13.49;62.22
50518;BME280;37075;44.084;2.962;2023-09-07T03:03:31;98043.91;;;13.48;62.39
50518;BME280;37075;44.084;2.962;2023-09-07T03:06:17;98036.03;;;13.46;62.36
50518;BME280;37075;44.084;2.962;2023-09-07T03:09:06;98048.94;;;13.46;62.35
50518;BME280;37075;44.084;2.962;2023-09-07T03:11:56;98052.34;;;13.43;62.35
50518;BME280;37075;44.084;2.962;2023-09-07T03:15:00;98053.41;;;13.38;62.51
50518;BME280;37075;44.084;2.962;2023-09-07T03:17:49;98044.38;;;13.38;62.59
50518;BME280;37075;44.084;2.962;2023-09-07T03:20:36;98053.28;;;13.35;62.62
50518;BME280;37075;44.084;2.962;2023-09-07T03:23:23;98050.88;;;13.33;63.13
50518;BME280;37075;44.084;2.962;2023-09-07T03:26:28;98048.03;;;13.30;62.85
50518;BME280;37075;44.084;2.962;2023-09-07T03:29:14;98051.13;;;13.28;62.90
50518;BME280;37075;44.084;2.962;2023-09-07T03:32:01;98049.50;;;13.27;63.06
50518;BME280;37075;44.084;2.962;2023-09-07T03:34:47;98050.66;;;13.26;62.93
50518;BME280;37075;44.084;2.962;2023-09-07T03:37:35;98050.66;;;13.26;63.09
50518;BME280;37075;44.084;2.962;2023-09-07T03:40:22;98048.25;;;13.24;63.02
50518;BME280;37075;44.084;2.962;2023-09-07T03:43:09;98041.16;;;13.23;63.01
50518;BME280;37075;44.084;2.962;2023-09-07T03:45:57;98048.59;;;13.23;63.12
50518;BME280;37075;44.084;2.962;2023-09-07T03:48:43;98054.75;;;13.20;63.51
50518;BME280;37075;44.084;2.962;2023-09-07T03:51:29;98055.41;;;13.17;64.03
50518;BME280;37075;44.084;2.962;2023-09-07T03:54:16;98057.03;;;13.18;63.91
50518;BME280;37075;44.084;2.962;2023-09-07T03:57:03;98055.09;;;13.18;63.76
50518;BME280;37075;44.084;2.962;2023-09-07T03:59:50;98059.78;;;13.18;63.79
50518;BME280;37075;44.084;2.962;2023-09-07T04:02:36;98056.25;;;13.17;63.63
50518;BME280;37075;44.084;2.962;2023-09-07T04:05:22;98051.56;;;13.18;63.64
50518;BME280;37075;44.084;2.962;2023-09-07T04:08:09;98049.94;;;13.17;63.62
50518;BME280;37075;44.084;2.962;2023-09-07T04:10:57;98050.28;;;13.15;63.69
50518;BME280;37075;44.084;2.962;2023-09-07T04:13:43;98046.75;;;13.15;63.63
50518;BME280;37075;44.084;2.962;2023-09-07T04:16:48;98052.22;;;13.15;63.70
50518;BME280;37075;44.084;2.962;2023-09-07T04:19:36;98059.19;;;13.12;63.99
50518;BME280;37075;44.084;2.962;2023-09-07T04:22:22;98056.00;;;13.10;64.23
50518;BME280;37075;44.084;2.962;2023-09-07T04:25:08;98058.28;;;13.08;64.26
50518;BME280;37075;44.084;2.962;2023-09-07T04:27:56;98059.41;;;13.07;64.34
50518;BME280;37075;44.084;2.962;2023-09-07T04:30:42;98068.44;;;13.08;64.26
50518;BME280;37075;44.084;2.962;2023-09-07T04:33:30;98057.81;;;13.06;64.33
50518;BME280;37075;44.084;2.962;2023-09-07T04:36:17;98063.28;;;13.06;64.19
50518;BME280;37075;44.084;2.962;2023-09-07T04:39:05;98063.63;;;13.05;64.21
50518;BME280;37075;44.084;2.962;2023-09-07T04:41:52;98064.78;;;13.04;64.19
50518;BME280;37075;44.084;2.962;2023-09-07T04:44:39;98059.16;;;13.00;64.54
50518;BME280;37075;44.084;2.962;2023-09-07T04:47:25;98057.22;;;13.01;64.35
50518;BME280;37075;44.084;2.962;2023-09-07T04:50:12;98059.16;;;13.00;64.62
50518;BME280;37075;44.084;2.962;2023-09-07T04:52:58;98056.41;;;13.00;64.55
50518;BME280;37075;44.084;2.962;2023-09-07T04:55:45;98062.94;;;12.95;65.54
50518;BME280;37075;44.084;2.962;2023-09-07T04:58:32;98059.72;;;12.93;65.64
50518;BME280;37075;44.084;2.962;2023-09-07T05:01:19;98058.59;;;12.94;65.71
50518;BME280;37075;44.084;2.962;2023-09-07T05:04:06;98059.38;;;12.95;65.34
50518;BME280;37075;44.084;2.962;2023-09-07T05:06:52;98067.25;;;12.96;65.44
50518;BME280;37075;44.084;2.962;2023-09-07T05:09:39;98065.31;;;12.97;65.03
50518;BME280;37075;44.084;2.962;2023-09-07T05:12:25;98059.84;;;12.97;65.20
50518;BME280;37075;44.084;2.962;2023-09-07T05:15:12;98068.06;;;12.97;65.17
50518;BME280;37075;44.084;2.962;2023-09-07T05:17:59;98066.47;;;12.96;65.10
50518;BME280;37075;44.084;2.962;2023-09-07T05:20:46;98066.81;;;12.94;65.50
50518;BME280;37075;44.084;2.962;2023-09-07T05:23:33;98066.81;;;12.94;65.53
50518;BME280;37075;44.084;2.962;2023-09-07T05:26:23;98075.00;;;12.94;65.62
50518;BME280;37075;44.084;2.962;2023-09-07T05:29:11;98076.63;;;12.95;65.68
50518;BME280;37075;44.084;2.962;2023-09-07T05:31:57;98077.41;;;12.96;65.78
50518;BME280;37075;44.084;2.962;2023-09-07T05:34:44;98077.06;;;12.97;65.68
50518;BME280;37075;44.084;2.962;2023-09-07T05:37:31;98069.31;;;13.00;65.76
50518;BME280;37075;44.084;2.962;2023-09-07T05:40:17;98078.31;;;13.00;65.88
50518;BME280;37075;44.084;2.962;2023-09-07T05:43:03;98069.78;;;13.02;65.82
50518;BME280;37075;44.084;2.962;2023-09-07T05:45:50;98074.94;;;13.03;66.02
50518;BME280;37075;44.084;2.962;2023-09-07T05:48:36;98081.88;;;13.01;65.96
50518;BME280;37075;44.084;2.962;2023-09-07T05:51:23;98086.69;;;13.04;66.10
50518;BME280;37075;44.084;2.962;2023-09-07T05:54:10;98090.34;;;13.08;66.27
50518;BME280;37075;44.084;2.962;2023-09-07T05:56:56;98086.91;;;13.11;66.23
50518;BME280;37075;44.084;2.962;2023-09-07T05:59:42;98088.16;;;13.13;66.10
50518;BME280;37075;44.084;2.962;2023-09-07T06:02:28;98097.97;;;13.14;66.60
50518;BME280;37075;44.084;2.962;2023-09-07T06:05:14;98094.44;;;13.14;67.17
50518;BME280;37075;44.084;2.962;2023-09-07T06:08:02;98100.59;;;13.11;68.00
50518;BME280;37075;44.084;2.962;2023-09-07T06:10:49;98090.38;;;13.20;67.70
50518;BME280;37075;44.084;2.962;2023-09-07T06:13:35;98093.00;;;13.29;67.58
50518;BME280;37075;44.084;2.962;2023-09-07T06:16:22;98092.09;;;13.37;67.54
50518;BME280;37075;44.084;2.962;2023-09-07T06:19:08;98100.06;;;13.42;67.56
50518;BME280;37075;44.084;2.962;2023-09-07T06:21:54;98098.34;;;13.49;67.56
50518;BME280;37075;44.084;2.962;2023-09-07T06:24:42;98089.25;;;13.57;67.67
50518;BME280;37075;44.084;2.962;2023-09-07T06:27:28;98094.25;;;13.68;67.71
50518;BME280;37075;44.084;2.962;2023-09-07T06:30:15;98100.03;;;13.78;67.58
50518;BME280;37075;44.084;2.962;2023-09-07T06:33:02;98088.97;;;13.87;67.61
50518;BME280;37075;44.084;2.962;2023-09-07T06:36:06;98087.22;;;13.95;67.59
50518;BME280;37075;44.084;2.962;2023-09-07T06:38:53;98101.59;;;14.04;67.61
50518;BME280;37075;44.084;2.962;2023-09-07T06:41:41;98100.69;;;14.12;67.82
50518;BME280;37075;44.084;2.962;2023-09-07T06:44:27;98100.88;;;14.19;67.55
50518;BME280;37075;44.084;2.962;2023-09-07T06:47:13;98101.88;;;14.27;67.61
50518;BME280;37075;44.084;2.962;2023-09-07T06:50:00;98102.53;;;14.36;67.24
50518;BME280;37075;44.084;2.962;2023-09-07T06:52:48;98096.13;;;14.44;67.01
50518;BME280;37075;44.084;2.962;2023-09-07T06:55:36;98105.00;;;14.53;66.73
50518;BME280;37075;44.084;2.962;2023-09-07T06:58:24;98098.56;;;14.61;66.27
50518;BME280;37075;44.084;2.962;2023-09-07T07:01:10;98104.69;;;14.70;66.42
50518;BME280;37075;44.084;2.962;2023-09-07T07:04:15;98104.63;;;14.82;66.09
50518;BME280;37075;44.084;2.962;2023-09-07T07:07:01;98104.13;;;14.93;65.40
50518;BME280;37075;44.084;2.962;2023-09-07T07:09:49;98107.50;;;15.02;65.08
50518;BME280;37075;44.084;2.962;2023-09-07T07:12:35;98105.84;;;15.13;64.47
50518;BME280;37075;44.084;2.962;2023-09-07T07:15:25;98104.50;;;15.23;64.36
50518;BME280;37075;44.084;2.962;2023-09-07T07:18:11;98104.31;;;15.31;64.18
50518;BME280;37075;44.084;2.962;2023-09-07T07:20:58;98103.44;;;15.43;63.74
50518;BME280;37075;44.084;2.962;2023-09-07T07:23:44;98111.50;;;15.52;63.49
50518;BME280;37075;44.084;2.962;2023-09-07T07:26:31;98115.69;;;15.61;63.13
50518;BME280;37075;44.084;2.962;2023-09-07T07:29:17;98124.19;;;15.72;63.16
50518;BME280;37075;44.084;2.962;2023-09-07T07:32:05;98109.44;;;15.80;62.84
50518;BME280;37075;44.084;2.962;2023-09-07T07:34:52;98109.25;;;15.89;62.65
50518;BME280;37075;44.084;2.962;2023-09-07T07:37:38;98104.78;;;16.00;62.39
50518;BME280;37075;44.084;2.962;2023-09-07T07:40:25;98104.56;;;16.09;62.10
50518;BME280;37075;44.084;2.962;2023-09-07T07:43:11;98098.88;;;16.17;61.83
50518;BME280;37075;44.084;2.962;2023-09-07T07:45:57;98102.19;;;16.26;61.39
50518;BME280;37075;44.084;2.962;2023-09-07T07:48:46;98089.81;;;16.36;61.35
50518;BME280;37075;44.084;2.962;2023-09-07T07:51:32;98091.19;;;16.46;61.05
50518;BME280;37075;44.084;2.962;2023-09-07T07:54:19;98092.19;;;16.57;60.83
50518;BME280;37075;44.084;2.962;2023-09-07T07:57:07;98087.59;;;16.64;60.53
50518;BME280;37075;44.084;2.962;2023-09-07T07:59:55;98079.59;;;16.75;60.34
50518;BME280;37075;44.084;2.962;2023-09-07T08:02:42;98080.56;;;16.86;60.01
50518;BME280;37075;44.084;2.962;2023-09-07T08:05:31;98087.88;;;16.98;59.72
50518;BME280;37075;44.084;2.962;2023-09-07T08:08:17;98084.16;;;17.10;59.40
50518;BME280;37075;44.084;2.962;2023-09-07T08:11:04;98084.34;;;17.20;59.02
50518;BME280;37075;44.084;2.962;2023-09-07T08:13:52;98080.59;;;17.32;58.90
50518;BME280;37075;44.084;2.962;2023-09-07T08:16:38;98078.00;;;17.43;58.79
50518;BME280;37075;44.084;2.962;2023-09-07T08:19:26;98080.19;;;17.56;58.81
50518;BME280;37075;44.084;2.962;2023-09-07T08:22:16;98080.78;;;17.69;58.10
50518;BME280;37075;44.084;2.962;2023-09-07T08:25:03;98075.13;;;17.85;58.30
50518;BME280;37075;44.084;2.962;2023-09-07T08:27:50;98080.44;;;17.97;57.89
50518;BME280;37075;44.084;2.962;2023-09-07T08:30:40;98082.94;;;18.09;57.54
50518;BME280;37075;44.084;2.962;2023-09-07T08:33:25;98074.78;;;18.20;56.94
50518;BME280;37075;44.084;2.962;2023-09-07T08:36:13;98068.25;;;18.32;56.50
50518;BME280;37075;44.084;2.962;2023-09-07T08:39:04;98069.53;;;18.41;56.13
50518;BME280;37075;44.084;2.962;2023-09-07T08:41:56;98070.47;;;18.53;56.21
50518;BME280;37075;44.084;2.962;2023-09-07T08:44:43;98072.19;;;18.64;55.87
50518;BME280;37075;44.084;2.962;2023-09-07T08:47:34;98068.41;;;18.76;55.39
50518;BME280;37075;44.084;2.962;2023-09-07T08:50:20;98066.16;;;18.89;55.43
50518;BME280;37075;44.084;2.962;2023-09-07T08:53:08;98057.59;;;19.01;55.27
50518;BME280;37075;44.084;2.962;2023-09-07T08:55:56;98062.44;;;19.15;54.93
50518;BME280;37075;44.084;2.962;2023-09-07T08:58:42;98063.75;;;19.28;54.55
50518;BME280;37075;44.084;2.962;2023-09-07T09:01:29;98057.91;;;19.40;54.51
50518;BME280;37075;44.084;2.962;2023-09-07T09:04:17;98038.25;;;19.52;54.23
50518;BME280;37075;44.084;2.962;2023-09-07T09:07:05;98042.31;;;19.65;54.36
50518;BME280;37075;44.084;2.962;2023-09-07T09:10:02;98045.97;;;19.80;54.18
50518;BME280;37075;44.084;2.962;2023-09-07T09:12:51;98034.19;;;19.97;54.47
50518;BME280;37075;44.084;2.962;2023-09-07T09:15:37;98040.19;;;20.10;54.12
50518;BME280;37075;44.084;2.962;2023-09-07T09:18:23;98031.94;;;20.21;53.63
50518;BME280;37075;44.084;2.962;2023-09-07T09:21:13;98039.50;;;20.35;53.31
50518;BME280;37075;44.084;2.962;2023-09-07T09:24:00;98034.44;;;20.47;53.11
50518;BME280;37075;44.084;2.962;2023-09-07T09:26:46;98031.72;;;20.61;52.51
50518;BME280;37075;44.084;2.962;2023-09-07T09:29:36;98033.31;;;20.77;52.16
50518;BME280;37075;44.084;2.962;2023-09-07T09:32:22;98026.59;;;20.92;51.64
50518;BME280;37075;44.084;2.962;2023-09-07T09:35:09;98019.50;;;21.09;51.16
50518;BME280;37075;44.084;2.962;2023-09-07T09:37:55;98021.50;;;21.26;51.00
50518;BME280;37075;44.084;2.962;2023-09-07T09:40:41;98021.88;;;21.42;50.45
50518;BME280;37075;44.084;2.962;2023-09-07T09:43:28;98022.25;;;21.59;50.34
50518;BME280;37075;44.084;2.962;2023-09-07T09:46:16;98023.81;;;21.77;49.49
50518;BME280;37075;44.084;2.962;2023-09-07T09:49:04;98026.53;;;21.95;49.47
50518;BME280;37075;44.084;2.962;2023-09-07T09:51:51;98015.00;;;22.14;49.10
50518;BME280;37075;44.084;2.962;2023-09-07T09:54:38;98007.78;;;22.31;48.39
50518;BME280;37075;44.084;2.962;2023-09-07T09:57:43;98016.41;;;22.51;48.09
50518;BME280;37075;44.084;2.962;2023-09-07T10:00:30;98018.72;;;22.67;47.47
50518;BME280;37075;44.084;2.962;2023-09-07T10:03:24;98014.63;;;22.86;46.97
50518;BME280;37075;44.084;2.962;2023-09-07T10:06:18;98000.59;;;23.03;45.49
50518;BME280;37075;44.084;2.962;2023-09-07T10:09:06;98010.78;;;23.24;45.35
50518;BME280;37075;44.084;2.962;2023-09-07T10:11:57;98004.25;;;23.42;45.21
50518;BME280;37075;44.084;2.962;2023-09-07T10:14:44;98002.94;;;23.57;44.32
50518;BME280;37075;44.084;2.962;2023-09-07T10:17:35;98008.31;;;23.78;43.53
50518;BME280;37075;44.084;2.962;2023-09-07T10:20:22;98002.56;;;23.92;43.00
50518;BME280;37075;44.084;2.962;2023-09-07T10:23:08;97991.63;;;24.09;41.70
50518;BME280;37075;44.084;2.962;2023-09-07T10:25:56;97996.13;;;24.33;40.69
50518;BME280;37075;44.084;2.962;2023-09-07T10:28:43;97987.84;;;24.56;40.34
50518;BME280;37075;44.084;2.962;2023-09-07T10:31:30;97994.00;;;24.71;40.79
50518;BME280;37075;44.084;2.962;2023-09-07T10:34:16;97991.31;;;24.91;39.52
50518;BME280;37075;44.084;2.962;2023-09-07T10:37:03;97989.06;;;25.09;38.69
50518;BME280;37075;44.084;2.962;2023-09-07T10:39:50;97985.22;;;25.27;37.83
50518;BME280;37075;44.084;2.962;2023-09-07T10:42:36;97982.09;;;25.44;37.86
50518;BME280;37075;44.084;2.962;2023-09-07T10:45:22;97981.06;;;25.58;36.80
50518;BME280;37075;44.084;2.962;2023-09-07T10:48:09;97979.28;;;25.68;34.83
50518;BME280;37075;44.084;2.962;2023-09-07T10:50:56;97979.81;;;25.83;35.22
50518;BME280;37075;44.084;2.962;2023-09-07T10:53:44;97980.75;;;25.96;34.97
50518;BME280;37075;44.084;2.962;2023-09-07T10:56:30;97973.94;;;26.17;32.25
50518;BME280;37075;44.084;2.962;2023-09-07T10:59:17;97982.88;;;26.28;34.51
50518;BME280;37075;44.084;2.962;2023-09-07T11:02:04;97979.47;;;26.40;33.62
50518;BME280;37075;44.084;2.962;2023-09-07T11:04:50;97971.97;;;26.53;33.71
50518;BME280;37075;44.084;2.962;2023-09-07T11:07:37;97979.25;;;26.67;33.23
50518;BME280;37075;44.084;2.962;2023-09-07T11:10:25;97968.44;;;26.85;33.04
50518;BME280;37075;44.084;2.962;2023-09-07T11:13:13;97965.47;;;26.92;32.67
50518;BME280;37075;44.084;2.962;2023-09-07T11:16:01;97961.66;;;27.02;32.46
50518;BME280;37075;44.084;2.962;2023-09-07T11:18:47;97956.94;;;27.16;31.69
50518;BME280;37075;44.084;2.962;2023-09-07T11:21:34;97950.59;;;27.28;31.86
50518;BME280;37075;44.084;2.962;2023-09-07T11:24:21;97951.56;;;27.38;31.31
50518;BME280;37075;44.084;2.962;2023-09-07T11:27:10;97950.50;;;27.48;30.69
50518;BME280;37075;44.084;2.962;2023-09-07T11:29:56;97944.25;;;27.56;30.52
50518;BME280;37075;44.084;2.962;2023-09-07T11:32:43;97950.06;;;27.66;29.50
50518;BME280;37075;44.084;2.962;2023-09-07T11:35:31;97935.28;;;27.78;29.45
50518;BME280;37075;44.084;2.962;2023-09-07T11:38:18;97926.16;;;27.90;28.54
50518;BME280;37075;44.084;2.962;2023-09-07T11:41:04;97933.78;;;28.02;28.40
50518;BME280;37075;44.084;2.962;2023-09-07T11:44:10;97924.63;;;28.14;28.83
50518;BME280;37075;44.084;2.962;2023-09-07T11:46:57;97926.78;;;28.23;27.78
50518;BME280;37075;44.084;2.962;2023-09-07T11:49:43;97927.34;;;28.31;28.39
50518;BME280;37075;44.084;2.962;2023-09-07T11:52:29;97916.28;;;28.40;28.20
50518;BME280;37075;44.084;2.962;2023-09-07T11:55:15;97918.63;;;28.54;27.71
50518;BME280;37075;44.084;2.962;2023-09-07T11:58:26;97913.34;;;28.69;26.27
50518;BME280;37075;44.084;2.962;2023-09-07T12:01:13;97910.53;;;28.81;25.94
50518;BME280;37075;44.084;2.962;2023-09-07T12:04:01;97921.66;;;28.85;26.46
50518;BME280;37075;44.084;2.962;2023-09-07T12:06:48;97899.44;;;28.91;26.46
50518;BME280;37075;44.084;2.962;2023-09-07T12:09:35;97908.97;;;28.93;26.43
50518;BME280;37075;44.084;2.962;2023-09-07T12:12:21;97911.41;;;29.04;25.88
50518;BME280;37075;44.084;2.962;2023-09-07T12:15:08;97919.06;;;29.16;25.80
50518;BME280;37075;44.084;2.962;2023-09-07T12:17:57;97906.66;;;29.26;25.58
50518;BME280;37075;44.084;2.962;2023-09-07T12:20:43;97913.44;;;29.38;26.24
50518;BME280;37075;44.084;2.962;2023-09-07T12:23:29;97910.00;;;29.46;26.05
50518;BME280;37075;44.084;2.962;2023-09-07T12:26:15;97905.69;;;29.55;26.28
50518;BME280;37075;44.084;2.962;2023-09-07T12:29:04;97912.59;;;29.63;25.37
50518;BME280;37075;44.084;2.962;2023-09-07T12:31:51;97908.63;;;29.73;25.93
50518;BME280;37075;44.084;2.962;2023-09-07T12:34:38;97912.41;;;29.79;25.29
50518;BME280;37075;44.084;2.962;2023-09-07T12:37:24;97904.03;;;29.88;25.87
50518;BME280;37075;44.084;2.962;2023-09-07T12:40:11;97897.56;;;30.00;25.21
50518;BME280;37075;44.084;2.962;2023-09-07T12:42:58;97896.53;;;30.07;24.74
50518;BME280;37075;44.084;2.962;2023-09-07T12:46:03;97901.63;;;30.21;24.86
50518;BME280;37075;44.084;2.962;2023-09-07T12:48:49;97908.41;;;30.33;24.37
50518;BME280;37075;44.084;2.962;2023-09-07T12:51:36;97886.84;;;30.39;24.25
50518;BME280;37075;44.084;2.962;2023-09-07T12:54:22;97888.47;;;30.49;23.79
50518;BME280;37075;44.084;2.962;2023-09-07T12:57:08;97890.25;;;30.65;24.24
50518;BME280;37075;44.084;2.962;2023-09-07T12:59:54;97880.94;;;30.77;23.77
50518;BME280;37075;44.084;2.962;2023-09-07T13:02:40;97881.72;;;30.96;24.37
50518;BME280;37075;44.084;2.962;2023-09-07T13:05:26;97885.56;;;31.20;23.82
50518;BME280;37075;44.084;2.962;2023-09-07T13:08:14;97869.00;;;31.50;23.73
50518;BME280;37075;44.084;2.962;2023-09-07T13:11:00;97863.66;;;31.79;24.04
50518;BME280;37075;44.084;2.962;2023-09-07T13:13:47;97858.25;;;32.09;22.99
50518;BME280;37075;44.084;2.962;2023-09-07T13:16:33;97864.63;;;32.37;23.01
50518;BME280;37075;44.084;2.962;2023-09-07T13:19:19;97863.34;;;32.71;22.86
50518;BME280;37075;44.084;2.962;2023-09-07T13:22:05;97858.44;;;33.04;22.55
50518;BME280;37075;44.084;2.962;2023-09-07T13:24:53;97852.94;;;33.34;21.91
50518;BME280;37075;44.084;2.962;2023-09-07T13:27:39;97864.31;;;33.63;21.68
50518;BME280;37075;44.084;2.962;2023-09-07T13:30:25;97855.75;;;34.02;21.99
50518;BME280;37075;44.084;2.962;2023-09-07T13:33:11;97853.81;;;34.38;20.98
50518;BME280;37075;44.084;2.962;2023-09-07T13:35:57;97857.22;;;34.77;21.16
50518;BME280;37075;44.084;2.962;2023-09-07T13:38:43;97851.13;;;35.19;21.02
50518;BME280;37075;44.084;2.962;2023-09-07T13:41:30;97848.25;;;35.60;20.17
50518;BME280;37075;44.084;2.962;2023-09-07T13:44:16;97842.59;;;35.86;19.85
50518;BME280;37075;44.084;2.962;2023-09-07T13:47:02;97847.63;;;36.28;20.36
50518;BME280;37075;44.084;2.962;2023-09-07T13:49:48;97852.06;;;36.66;19.66
50518;BME280;37075;44.084;2.962;2023-09-07T13:52:34;97839.66;;;37.06;19.36
50518;BME280;37075;44.084;2.962;2023-09-07T13:55:20;97842.13;;;37.47;18.76
50518;BME280;37075;44.084;2.962;2023-09-07T13:58:08;97841.47;;;37.74;18.39
50518;BME280;37075;44.084;2.962;2023-09-07T14:00:53;97837.34;;;37.97;18.27
50518;BME280;37075;44.084;2.962;2023-09-07T14:03:39;97820.00;;;38.12;17.97
50518;BME280;37075;44.084;2.962;2023-09-07T14:06:26;97825.97;;;38.53;17.44
50518;BME280;37075;44.084;2.962;2023-09-07T14:09:30;97831.13;;;38.83;17.02
50518;BME280;37075;44.084;2.962;2023-09-07T14:12:18;97826.63;;;38.99;16.31
50518;BME280;37075;44.084;2.962;2023-09-07T14:15:06;97825.06;;;39.14;15.77
50518;BME280;37075;44.084;2.962;2023-09-07T14:17:52;97828.34;;;39.35;15.93
50518;BME280;37075;44.084;2.962;2023-09-07T14:20:38;97829.28;;;39.60;16.23
50518;BME280;37075;44.084;2.962;2023-09-07T14:23:24;97825.94;;;39.92;16.26
50518;BME280;37075;44.084;2.962;2023-09-07T14:26:10;97831.41;;;40.25;15.85
50518;BME280;37075;44.084;2.962;2023-09-07T14:28:55;97815.50;;;40.60;15.73
50518;BME280;37075;44.084;2.962;2023-09-07T14:32:03;97816.06;;;40.83;14.48
50518;BME280;37075;44.084;2.962;2023-09-07T14:34:49;97819.88;;;41.10;14.40
50518;BME280;37075;44.084;2.962;2023-09-07T14:37:54;97814.69;;;41.51;14.25
50518;BME280;37075;44.084;2.962;2023-09-07T14:40:41;97806.84;;;41.89;14.50
50518;BME280;37075;44.084;2.962;2023-09-07T14:43:28;97816.91;;;42.28;13.60
50518;BME280;37075;44.084;2.962;2023-09-07T14:46:14;97818.81;;;42.39;13.06
50518;BME280;37075;44.084;2.962;2023-09-07T14:49:02;97807.72;;;42.48;12.52